sensor_id;sensor_type;location;lat;lon;timestamp;P1;durP1;ratioP1;P2;durP2;ratioP2
78778;SDS011;68121;52.404;5.318;2023-03-03T00:01:21;15.85;;;6.72;;
78778;SDS011;68121;52.404;5.318;2023-03-03T00:03:50;14.02;;;6.75;;
78778;SDS011;68121;52.404;5.318;2023-03-03T00:06:17;15.20;;;7.20;;
78778;SDS011;68121;52.404;5.318;2023-03-03T00:08:43;16.55;;;7.03;;
78778;SDS011;68121;52.404;5.318;2023-03-03T00:11:09;12.27;;;5.97;;
78778;SDS011;68121;52.404;5.318;2023-03-03T00:13:46;14.23;;;6.82;;
78778;SDS011;68121;52.404;5.318;2023-03-03T00:16:14;15.20;;;6.32;;
78778;SDS011;68121;52.404;5.318;2023-03-03T00:18:53;12.63;;;6.50;;
78778;SDS011;68121;52.404;5.318;2023-03-03T00:24:04;13.88;;;7.15;;
78778;SDS011;68121;52.404;5.318;2023-03-03T00:26:39;20.33;;;7.75;;
78778;SDS011;68121;52.404;5.318;2023-03-03T00:34:44;18.85;;;6.93;;
78778;SDS011;68121;52.404;5.318;2023-03-03T00:40:12;16.40;;;7.57;;
78778;SDS011;68121;52.404;5.318;2023-03-03T00:42:39;15.60;;;7.70;;
78778;SDS011;68121;52.404;5.318;2023-03-03T00:50:46;14.02;;;6.43;;
78778;SDS011;68121;52.404;5.318;2023-03-03T00:53:14;12.80;;;6.25;;
78778;SDS011;68121;52.404;5.318;2023-03-03T00:55:42;15.55;;;7.22;;
78778;SDS011;68121;52.404;5.318;2023-03-03T00:58:09;13.75;;;6.30;;
78778;SDS011;68121;52.404;5.318;2023-03-03T01:00:35;12.60;;;6.63;;
78778;SDS011;68121;52.404;5.318;2023-03-03T01:03:06;15.95;;;7.05;;
78778;SDS011;68121;52.404;5.318;2023-03-03T01:05:34;15.75;;;7.25;;
78778;SDS011;68121;52.404;5.318;2023-03-03T01:08:01;19.70;;;7.13;;
78778;SDS011;68121;52.404;5.318;2023-03-03T01:10:28;18.10;;;9.25;;
78778;SDS011;68121;52.404;5.318;2023-03-03T01:12:56;14.40;;;7.38;;
78778;SDS011;68121;52.404;5.318;2023-03-03T01:15:23;17.45;;;7.30;;
78778;SDS011;68121;52.404;5.318;2023-03-03T01:17:49;16.42;;;7.10;;
78778;SDS011;68121;52.404;5.318;2023-03-03T01:20:16;22.98;;;8.50;;
78778;SDS011;68121;52.404;5.318;2023-03-03T01:22:42;21.23;;;7.93;;
78778;SDS011;68121;52.404;5.318;2023-03-03T01:25:08;21.25;;;8.77;;
78778;SDS011;68121;52.404;5.318;2023-03-03T01:27:35;19.15;;;7.07;;
78778;SDS011;68121;52.404;5.318;2023-03-03T01:30:02;16.25;;;6.53;;
78778;SDS011;68121;52.404;5.318;2023-03-03T01:32:29;14.40;;;6.60;;
78778;SDS011;68121;52.404;5.318;2023-03-03T01:34:55;17.33;;;6.82;;
78778;SDS011;68121;52.404;5.318;2023-03-03T01:37:21;12.75;;;6.75;;
78778;SDS011;68121;52.404;5.318;2023-03-03T01:39:51;15.93;;;7.03;;
78778;SDS011;68121;52.404;5.318;2023-03-03T01:42:18;18.77;;;7.63;;
78778;SDS011;68121;52.404;5.318;2023-03-03T01:44:45;16.70;;;7.50;;
78778;SDS011;68121;52.404;5.318;2023-03-03T01:47:12;19.58;;;7.85;;
78778;SDS011;68121;52.404;5.318;2023-03-03T01:49:55;17.60;;;7.15;;
78778;SDS011;68121;52.404;5.318;2023-03-03T01:52:37;15.20;;;7.88;;
78778;SDS011;68121;52.404;5.318;2023-03-03T01:55:14;27.13;;;9.20;;
78778;SDS011;68121;52.404;5.318;2023-03-03T01:57:47;18.98;;;9.25;;
78778;SDS011;68121;52.404;5.318;2023-03-03T02:00:19;20.23;;;8.85;;
78778;SDS011;68121;52.404;5.318;2023-03-03T02:02:45;31.67;;;9.73;;
78778;SDS011;68121;52.404;5.318;2023-03-03T02:05:12;31.55;;;9.23;;
78778;SDS011;68121;52.404;5.318;2023-03-03T02:07:39;18.48;;;8.50;;
78778;SDS011;68121;52.404;5.318;2023-03-03T02:17:42;20.95;;;8.55;;
78778;SDS011;68121;52.404;5.318;2023-03-03T02:20:43;31.20;;;7.15;;
78778;SDS011;68121;52.404;5.318;2023-03-03T02:23:21;25.02;;;6.80;;
78778;SDS011;68121;52.404;5.318;2023-03-03T02:28:32;13.40;;;6.72;;
78778;SDS011;68121;52.404;5.318;2023-03-03T02:30:59;15.45;;;6.50;;
78778;SDS011;68121;52.404;5.318;2023-03-03T02:33:26;16.15;;;5.40;;
78778;SDS011;68121;52.404;5.318;2023-03-03T02:35:53;18.42;;;6.63;;
78778;SDS011;68121;52.404;5.318;2023-03-03T02:41:22;18.05;;;5.72;;
78778;SDS011;68121;52.404;5.318;2023-03-03T02:46:23;19.70;;;5.95;;
78778;SDS011;68121;52.404;5.318;2023-03-03T02:48:49;12.80;;;6.00;;
78778;SDS011;68121;52.404;5.318;2023-03-03T02:51:15;13.35;;;5.60;;
78778;SDS011;68121;52.404;5.318;2023-03-03T02:53:41;21.65;;;6.30;;
78778;SDS011;68121;52.404;5.318;2023-03-03T02:56:07;23.77;;;6.00;;
78778;SDS011;68121;52.404;5.318;2023-03-03T02:58:36;20.08;;;6.55;;
78778;SDS011;68121;52.404;5.318;2023-03-03T03:01:03;16.58;;;6.20;;
78778;SDS011;68121;52.404;5.318;2023-03-03T03:03:29;18.45;;;5.95;;
78778;SDS011;68121;52.404;5.318;2023-03-03T03:05:55;15.00;;;6.47;;
78778;SDS011;68121;52.404;5.318;2023-03-03T03:08:21;20.10;;;6.47;;
78778;SDS011;68121;52.404;5.318;2023-03-03T03:10:47;16.02;;;6.78;;
78778;SDS011;68121;52.404;5.318;2023-03-03T03:13:13;21.05;;;6.68;;
78778;SDS011;68121;52.404;5.318;2023-03-03T03:15:39;25.55;;;7.38;;
78778;SDS011;68121;52.404;5.318;2023-03-03T03:18:05;25.77;;;6.43;;
78778;SDS011;68121;52.404;5.318;2023-03-03T03:20:36;16.08;;;5.82;;
78778;SDS011;68121;52.404;5.318;2023-03-03T03:25:30;20.00;;;5.40;;
78778;SDS011;68121;52.404;5.318;2023-03-03T03:27:57;17.10;;;5.60;;
78778;SDS011;68121;52.404;5.318;2023-03-03T03:30:23;25.65;;;6.45;;
78778;SDS011;68121;52.404;5.318;2023-03-03T03:32:49;26.50;;;6.63;;
78778;SDS011;68121;52.404;5.318;2023-03-03T03:35:15;13.88;;;4.97;;
78778;SDS011;68121;52.404;5.318;2023-03-03T03:37:42;16.23;;;5.68;;
78778;SDS011;68121;52.404;5.318;2023-03-03T03:40:09;14.02;;;5.15;;
78778;SDS011;68121;52.404;5.318;2023-03-03T03:42:36;19.88;;;5.22;;
78778;SDS011;68121;52.404;5.318;2023-03-03T03:45:05;18.63;;;5.32;;
78778;SDS011;68121;52.404;5.318;2023-03-03T03:47:31;11.55;;;5.10;;
78778;SDS011;68121;52.404;5.318;2023-03-03T03:49:57;15.75;;;5.32;;
78778;SDS011;68121;52.404;5.318;2023-03-03T03:52:23;13.45;;;6.75;;
78778;SDS011;68121;52.404;5.318;2023-03-03T03:54:49;15.75;;;6.03;;
78778;SDS011;68121;52.404;5.318;2023-03-03T03:57:15;18.42;;;6.20;;
78778;SDS011;68121;52.404;5.318;2023-03-03T03:59:41;22.13;;;6.15;;
78778;SDS011;68121;52.404;5.318;2023-03-03T04:02:08;21.35;;;5.90;;
78778;SDS011;68121;52.404;5.318;2023-03-03T04:04:34;23.35;;;6.75;;
78778;SDS011;68121;52.404;5.318;2023-03-03T04:07:00;44.95;;;7.57;;
78778;SDS011;68121;52.404;5.318;2023-03-03T04:09:26;22.60;;;5.95;;
78778;SDS011;68121;52.404;5.318;2023-03-03T04:11:52;21.38;;;6.45;;
78778;SDS011;68121;52.404;5.318;2023-03-03T04:14:18;25.60;;;5.63;;
78778;SDS011;68121;52.404;5.318;2023-03-03T04:16:44;18.65;;;5.53;;
78778;SDS011;68121;52.404;5.318;2023-03-03T04:19:10;16.88;;;5.95;;
78778;SDS011;68121;52.404;5.318;2023-03-03T04:21:36;22.25;;;6.50;;
78778;SDS011;68121;52.404;5.318;2023-03-03T04:24:03;26.33;;;6.25;;
78778;SDS011;68121;52.404;5.318;2023-03-03T04:26:29;20.98;;;6.72;;
78778;SDS011;68121;52.404;5.318;2023-03-03T04:28:56;16.10;;;5.43;;
78778;SDS011;68121;52.404;5.318;2023-03-03T04:31:23;22.20;;;6.55;;
78778;SDS011;68121;52.404;5.318;2023-03-03T04:33:50;44.72;;;7.88;;
78778;SDS011;68121;52.404;5.318;2023-03-03T04:36:18;32.72;;;7.53;;
78778;SDS011;68121;52.404;5.318;2023-03-03T04:38:45;19.00;;;6.80;;
78778;SDS011;68121;52.404;5.318;2023-03-03T04:41:11;32.03;;;7.68;;
78778;SDS011;68121;52.404;5.318;2023-03-03T04:43:37;35.35;;;6.97;;
78778;SDS011;68121;52.404;5.318;2023-03-03T04:46:04;27.52;;;7.28;;
78778;SDS011;68121;52.404;5.318;2023-03-03T04:48:30;15.38;;;6.93;;
78778;SDS011;68121;52.404;5.318;2023-03-03T04:50:56;22.35;;;6.57;;
78778;SDS011;68121;52.404;5.318;2023-03-03T04:53:22;24.55;;;7.57;;
78778;SDS011;68121;52.404;5.318;2023-03-03T04:55:49;31.45;;;7.68;;
78778;SDS011;68121;52.404;5.318;2023-03-03T04:58:16;15.15;;;6.40;;
78778;SDS011;68121;52.404;5.318;2023-03-03T05:00:46;23.25;;;7.22;;
78778;SDS011;68121;52.404;5.318;2023-03-03T05:03:18;17.80;;;6.65;;
78778;SDS011;68121;52.404;5.318;2023-03-03T05:05:45;33.38;;;7.88;;
78778;SDS011;68121;52.404;5.318;2023-03-03T05:08:11;18.90;;;7.00;;
78778;SDS011;68121;52.404;5.318;2023-03-03T05:10:38;16.13;;;5.88;;
78778;SDS011;68121;52.404;5.318;2023-03-03T05:13:04;18.90;;;7.30;;
78778;SDS011;68121;52.404;5.318;2023-03-03T05:15:31;24.67;;;6.53;;
78778;SDS011;68121;52.404;5.318;2023-03-03T05:17:57;19.92;;;6.28;;
78778;SDS011;68121;52.404;5.318;2023-03-03T05:20:24;16.08;;;6.57;;
78778;SDS011;68121;52.404;5.318;2023-03-03T05:22:51;21.77;;;6.40;;
78778;SDS011;68121;52.404;5.318;2023-03-03T05:25:17;14.43;;;6.15;;
78778;SDS011;68121;52.404;5.318;2023-03-03T05:27:43;21.27;;;6.93;;
78778;SDS011;68121;52.404;5.318;2023-03-03T05:30:10;24.83;;;6.07;;
78778;SDS011;68121;52.404;5.318;2023-03-03T05:32:36;25.50;;;6.50;;
78778;SDS011;68121;52.404;5.318;2023-03-03T05:35:03;26.80;;;7.47;;
78778;SDS011;68121;52.404;5.318;2023-03-03T05:37:30;34.08;;;7.30;;
78778;SDS011;68121;52.404;5.318;2023-03-03T05:39:56;11.88;;;6.15;;
78778;SDS011;68121;52.404;5.318;2023-03-03T05:42:22;36.40;;;6.47;;
78778;SDS011;68121;52.404;5.318;2023-03-03T05:44:48;18.48;;;7.47;;
78778;SDS011;68121;52.404;5.318;2023-03-03T05:47:14;26.13;;;6.15;;
78778;SDS011;68121;52.404;5.318;2023-03-03T05:49:40;30.63;;;6.63;;
78778;SDS011;68121;52.404;5.318;2023-03-03T05:52:06;16.00;;;6.47;;
78778;SDS011;68121;52.404;5.318;2023-03-03T05:54:33;19.73;;;5.93;;
78778;SDS011;68121;52.404;5.318;2023-03-03T05:57:00;29.25;;;5.47;;
78778;SDS011;68121;52.404;5.318;2023-03-03T05:59:26;29.63;;;6.18;;
78778;SDS011;68121;52.404;5.318;2023-03-03T06:01:52;33.40;;;6.85;;
78778;SDS011;68121;52.404;5.318;2023-03-03T06:04:18;25.95;;;6.22;;
78778;SDS011;68121;52.404;5.318;2023-03-03T06:06:44;27.10;;;6.18;;
78778;SDS011;68121;52.404;5.318;2023-03-03T06:09:10;40.95;;;7.63;;
78778;SDS011;68121;52.404;5.318;2023-03-03T06:11:36;26.75;;;6.40;;
78778;SDS011;68121;52.404;5.318;2023-03-03T06:14:03;19.80;;;6.38;;
78778;SDS011;68121;52.404;5.318;2023-03-03T06:16:29;22.48;;;6.50;;
78778;SDS011;68121;52.404;5.318;2023-03-03T06:18:55;23.00;;;6.78;;
78778;SDS011;68121;52.404;5.318;2023-03-03T06:21:21;26.10;;;7.07;;
78778;SDS011;68121;52.404;5.318;2023-03-03T06:23:47;33.20;;;6.57;;
78778;SDS011;68121;52.404;5.318;2023-03-03T06:26:13;22.08;;;6.10;;
78778;SDS011;68121;52.404;5.318;2023-03-03T06:28:39;22.35;;;6.25;;
78778;SDS011;68121;52.404;5.318;2023-03-03T06:31:05;42.47;;;8.05;;
78778;SDS011;68121;52.404;5.318;2023-03-03T06:33:31;16.25;;;6.25;;
78778;SDS011;68121;52.404;5.318;2023-03-03T06:35:57;29.52;;;6.63;;
78778;SDS011;68121;52.404;5.318;2023-03-03T06:38:23;26.98;;;7.32;;
78778;SDS011;68121;52.404;5.318;2023-03-03T06:40:49;32.30;;;7.22;;
78778;SDS011;68121;52.404;5.318;2023-03-03T06:43:15;39.33;;;7.03;;
78778;SDS011;68121;52.404;5.318;2023-03-03T06:45:41;18.55;;;7.13;;
78778;SDS011;68121;52.404;5.318;2023-03-03T06:48:09;20.63;;;6.15;;
78778;SDS011;68121;52.404;5.318;2023-03-03T06:50:36;34.42;;;6.63;;
78778;SDS011;68121;52.404;5.318;2023-03-03T06:53:10;39.40;;;6.65;;
78778;SDS011;68121;52.404;5.318;2023-03-03T06:55:38;20.63;;;6.18;;
78778;SDS011;68121;52.404;5.318;2023-03-03T06:58:07;24.15;;;6.15;;
78778;SDS011;68121;52.404;5.318;2023-03-03T07:00:37;22.83;;;5.30;;
78778;SDS011;68121;52.404;5.318;2023-03-03T07:03:11;26.33;;;6.53;;
78778;SDS011;68121;52.404;5.318;2023-03-03T07:05:43;16.52;;;5.85;;
78778;SDS011;68121;52.404;5.318;2023-03-03T07:08:13;17.50;;;6.60;;
78778;SDS011;68121;52.404;5.318;2023-03-03T07:13:15;14.65;;;5.53;;
78778;SDS011;68121;52.404;5.318;2023-03-03T07:15:52;18.67;;;5.85;;
78778;SDS011;68121;52.404;5.318;2023-03-03T07:21:32;65.22;;;7.57;;
78778;SDS011;68121;52.404;5.318;2023-03-03T07:24:07;16.20;;;5.38;;
78778;SDS011;68121;52.404;5.318;2023-03-03T07:26:46;15.15;;;5.47;;
78778;SDS011;68121;52.404;5.318;2023-03-03T07:29:15;12.25;;;4.47;;
78778;SDS011;68121;52.404;5.318;2023-03-03T07:31:51;12.10;;;5.32;;
78778;SDS011;68121;52.404;5.318;2023-03-03T07:34:23;20.67;;;5.95;;
78778;SDS011;68121;52.404;5.318;2023-03-03T07:37:03;25.10;;;5.82;;
78778;SDS011;68121;52.404;5.318;2023-03-03T07:39:41;11.27;;;4.90;;
78778;SDS011;68121;52.404;5.318;2023-03-03T07:44:38;8.20;;;4.30;;
78778;SDS011;68121;52.404;5.318;2023-03-03T07:47:17;15.73;;;4.10;;
78778;SDS011;68121;52.404;5.318;2023-03-03T07:49:44;14.85;;;4.78;;
78778;SDS011;68121;52.404;5.318;2023-03-03T07:54:59;9.82;;;4.90;;
78778;SDS011;68121;52.404;5.318;2023-03-03T07:57:28;30.73;;;4.90;;
78778;SDS011;68121;52.404;5.318;2023-03-03T08:05:50;17.75;;;4.75;;
78778;SDS011;68121;52.404;5.318;2023-03-03T08:08:30;7.82;;;4.13;;
78778;SDS011;68121;52.404;5.318;2023-03-03T08:11:01;11.63;;;4.75;;
78778;SDS011;68121;52.404;5.318;2023-03-03T08:16:01;13.75;;;4.65;;
78778;SDS011;68121;52.404;5.318;2023-03-03T08:18:46;20.65;;;4.97;;
78778;SDS011;68121;52.404;5.318;2023-03-03T08:21:14;12.60;;;4.20;;
78778;SDS011;68121;52.404;5.318;2023-03-03T08:23:43;13.07;;;4.70;;
78778;SDS011;68121;52.404;5.318;2023-03-03T08:26:09;9.75;;;4.68;;
78778;SDS011;68121;52.404;5.318;2023-03-03T08:28:39;9.00;;;4.72;;
78778;SDS011;68121;52.404;5.318;2023-03-03T08:31:05;11.23;;;5.22;;
78778;SDS011;68121;52.404;5.318;2023-03-03T08:33:31;8.35;;;4.47;;
78778;SDS011;68121;52.404;5.318;2023-03-03T08:35:57;8.50;;;3.35;;
78778;SDS011;68121;52.404;5.318;2023-03-03T08:38:24;7.43;;;4.35;;
78778;SDS011;68121;52.404;5.318;2023-03-03T08:40:50;8.15;;;4.05;;
78778;SDS011;68121;52.404;5.318;2023-03-03T08:43:16;7.43;;;3.65;;
78778;SDS011;68121;52.404;5.318;2023-03-03T08:45:49;11.73;;;4.07;;
78778;SDS011;68121;52.404;5.318;2023-03-03T08:48:18;7.88;;;3.65;;
78778;SDS011;68121;52.404;5.318;2023-03-03T08:50:45;7.43;;;4.38;;
78778;SDS011;68121;52.404;5.318;2023-03-03T08:53:12;9.27;;;3.80;;
78778;SDS011;68121;52.404;5.318;2023-03-03T08:55:39;7.10;;;3.55;;
78778;SDS011;68121;52.404;5.318;2023-03-03T08:58:06;8.30;;;3.40;;
78778;SDS011;68121;52.404;5.318;2023-03-03T09:00:32;7.00;;;3.53;;
78778;SDS011;68121;52.404;5.318;2023-03-03T09:02:59;7.85;;;3.65;;
78778;SDS011;68121;52.404;5.318;2023-03-03T09:05:25;4.88;;;3.13;;
78778;SDS011;68121;52.404;5.318;2023-03-03T09:07:52;4.05;;;2.83;;
78778;SDS011;68121;52.404;5.318;2023-03-03T09:10:20;6.13;;;2.95;;
78778;SDS011;68121;52.404;5.318;2023-03-03T09:13:01;4.80;;;3.28;;
78778;SDS011;68121;52.404;5.318;2023-03-03T09:15:32;8.02;;;3.28;;
78778;SDS011;68121;52.404;5.318;2023-03-03T09:20:44;8.93;;;3.80;;
78778;SDS011;68121;52.404;5.318;2023-03-03T09:28:53;8.55;;;3.03;;
78778;SDS011;68121;52.404;5.318;2023-03-03T09:31:24;8.55;;;4.25;;
78778;SDS011;68121;52.404;5.318;2023-03-03T09:33:54;10.27;;;4.55;;
78778;SDS011;68121;52.404;5.318;2023-03-03T09:36:26;5.22;;;3.15;;
78778;SDS011;68121;52.404;5.318;2023-03-03T09:38:54;9.07;;;3.70;;
78778;SDS011;68121;52.404;5.318;2023-03-03T09:56:20;5.10;;;2.65;;
78778;SDS011;68121;52.404;5.318;2023-03-03T09:58:39;6.65;;;3.45;;
78778;SDS011;68121;52.404;5.318;2023-03-03T10:03:57;9.35;;;2.97;;
78778;SDS011;68121;52.404;5.318;2023-03-03T10:06:44;6.40;;;2.83;;
78778;SDS011;68121;52.404;5.318;2023-03-03T10:12:10;3.80;;;2.33;;
78778;SDS011;68121;52.404;5.318;2023-03-03T10:15:07;5.38;;;2.78;;
78778;SDS011;68121;52.404;5.318;2023-03-03T10:22:55;6.22;;;2.33;;
78778;SDS011;68121;52.404;5.318;2023-03-03T10:25:42;4.88;;;2.08;;
78778;SDS011;68121;52.404;5.318;2023-03-03T10:34:23;4.25;;;2.22;;
78778;SDS011;68121;52.404;5.318;2023-03-03T10:37:00;2.63;;;1.70;;
78778;SDS011;68121;52.404;5.318;2023-03-03T10:50:52;4.47;;;2.42;;
78778;SDS011;68121;52.404;5.318;2023-03-03T10:53:26;4.05;;;1.90;;
78778;SDS011;68121;52.404;5.318;2023-03-03T10:58:50;4.72;;;2.65;;
78778;SDS011;68121;52.404;5.318;2023-03-03T11:04:24;3.30;;;2.17;;
78778;SDS011;68121;52.404;5.318;2023-03-03T11:07:18;4.07;;;2.08;;
78778;SDS011;68121;52.404;5.318;2023-03-03T11:15:43;3.80;;;2.08;;
78778;SDS011;68121;52.404;5.318;2023-03-03T11:21:12;5.88;;;2.47;;
78778;SDS011;68121;52.404;5.318;2023-03-03T11:29:12;3.55;;;1.45;;
78778;SDS011;68121;52.404;5.318;2023-03-03T11:31:46;2.70;;;1.40;;
78778;SDS011;68121;52.404;5.318;2023-03-03T11:37:07;3.50;;;1.45;;
78778;SDS011;68121;52.404;5.318;2023-03-03T11:39:36;2.33;;;0.98;;
78778;SDS011;68121;52.404;5.318;2023-03-03T11:44:45;3.30;;;1.55;;
78778;SDS011;68121;52.404;5.318;2023-03-03T11:55:51;1.77;;;0.65;;
78778;SDS011;68121;52.404;5.318;2023-03-03T11:58:28;0.47;;;0.28;;
78778;SDS011;68121;52.404;5.318;2023-03-03T12:01:08;3.70;;;0.60;;
78778;SDS011;68121;52.404;5.318;2023-03-03T12:04:02;2.88;;;0.90;;
78778;SDS011;68121;52.404;5.318;2023-03-03T12:10:02;0.93;;;0.40;;
78778;SDS011;68121;52.404;5.318;2023-03-03T12:12:43;1.15;;;0.68;;
78778;SDS011;68121;52.404;5.318;2023-03-03T12:20:39;2.45;;;0.50;;
78778;SDS011;68121;52.404;5.318;2023-03-03T12:28:19;1.70;;;0.50;;
78778;SDS011;68121;52.404;5.318;2023-03-03T12:41:26;1.00;;;0.60;;
78778;SDS011;68121;52.404;5.318;2023-03-03T12:44:23;1.13;;;0.85;;
78778;SDS011;68121;52.404;5.318;2023-03-03T12:49:24;1.02;;;0.57;;
78778;SDS011;68121;52.404;5.318;2023-03-03T12:52:48;1.23;;;0.40;;
78778;SDS011;68121;52.404;5.318;2023-03-03T13:06:54;0.95;;;0.40;;
78778;SDS011;68121;52.404;5.318;2023-03-03T13:09:50;3.63;;;0.57;;
78778;SDS011;68121;52.404;5.318;2023-03-03T13:20:11;0.93;;;0.40;;
78778;SDS011;68121;52.404;5.318;2023-03-03T13:27:51;1.17;;;1.08;;
78778;SDS011;68121;52.404;5.318;2023-03-03T13:30:31;1.85;;;0.57;;
78778;SDS011;68121;52.404;5.318;2023-03-03T13:35:52;0.90;;;0.40;;
78778;SDS011;68121;52.404;5.318;2023-03-03T13:38:45;3.05;;;0.75;;
78778;SDS011;68121;52.404;5.318;2023-03-03T13:41:28;4.40;;;1.42;;
78778;SDS011;68121;52.404;5.318;2023-03-03T13:44:07;2.42;;;0.82;;
78778;SDS011;68121;52.404;5.318;2023-03-03T13:49:46;3.13;;;0.90;;
78778;SDS011;68121;52.404;5.318;2023-03-03T13:52:27;2.05;;;0.80;;
78778;SDS011;68121;52.404;5.318;2023-03-03T13:58:09;1.20;;;0.80;;
78778;SDS011;68121;52.404;5.318;2023-03-03T14:06:13;2.45;;;1.02;;
78778;SDS011;68121;52.404;5.318;2023-03-03T14:08:50;3.78;;;0.80;;
78778;SDS011;68121;52.404;5.318;2023-03-03T14:19:43;1.60;;;0.50;;
78778;SDS011;68121;52.404;5.318;2023-03-03T14:25:09;2.70;;;0.70;;
78778;SDS011;68121;52.404;5.318;2023-03-03T14:27:49;2.38;;;1.00;;
78778;SDS011;68121;52.404;5.318;2023-03-03T14:35:37;4.03;;;0.60;;
78778;SDS011;68121;52.404;5.318;2023-03-03T14:38:09;1.77;;;0.50;;
78778;SDS011;68121;52.404;5.318;2023-03-03T14:40:48;0.80;;;0.40;;
78778;SDS011;68121;52.404;5.318;2023-03-03T14:46:47;2.13;;;0.63;;
78778;SDS011;68121;52.404;5.318;2023-03-03T14:48:58;2.47;;;0.40;;
78778;SDS011;68121;52.404;5.318;2023-03-03T14:51:40;2.35;;;0.30;;
78778;SDS011;68121;52.404;5.318;2023-03-03T14:54:22;1.00;;;0.40;;
78778;SDS011;68121;52.404;5.318;2023-03-03T14:56:55;3.70;;;0.63;;
78778;SDS011;68121;52.404;5.318;2023-03-03T14:59:27;2.58;;;0.40;;
78778;SDS011;68121;52.404;5.318;2023-03-03T15:01:56;1.50;;;0.55;;
78778;SDS011;68121;52.404;5.318;2023-03-03T15:04:37;6.75;;;0.80;;
78778;SDS011;68121;52.404;5.318;2023-03-03T15:07:18;5.40;;;0.50;;
78778;SDS011;68121;52.404;5.318;2023-03-03T15:09:52;0.77;;;0.20;;
78778;SDS011;68121;52.404;5.318;2023-03-03T15:14:48;4.85;;;0.88;;
78778;SDS011;68121;52.404;5.318;2023-03-03T15:25:02;3.40;;;0.68;;
78778;SDS011;68121;52.404;5.318;2023-03-03T15:30:36;3.33;;;0.77;;
78778;SDS011;68121;52.404;5.318;2023-03-03T15:33:13;2.15;;;0.47;;
78778;SDS011;68121;52.404;5.318;2023-03-03T15:36:17;5.68;;;0.98;;
78778;SDS011;68121;52.404;5.318;2023-03-03T15:50:17;3.22;;;0.57;;
78778;SDS011;68121;52.404;5.318;2023-03-03T15:55:31;1.92;;;0.98;;
78778;SDS011;68121;52.404;5.318;2023-03-03T16:04:01;4.47;;;0.90;;
78778;SDS011;68121;52.404;5.318;2023-03-03T16:12:20;2.33;;;0.50;;
78778;SDS011;68121;52.404;5.318;2023-03-03T16:17:47;5.00;;;0.60;;
78778;SDS011;68121;52.404;5.318;2023-03-03T16:23:07;5.15;;;0.93;;
78778;SDS011;68121;52.404;5.318;2023-03-03T16:25:54;3.92;;;1.00;;
78778;SDS011;68121;52.404;5.318;2023-03-03T16:28:51;5.60;;;0.85;;
78778;SDS011;68121;52.404;5.318;2023-03-03T16:31:24;7.15;;;0.90;;
78778;SDS011;68121;52.404;5.318;2023-03-03T16:34:07;5.10;;;0.95;;
78778;SDS011;68121;52.404;5.318;2023-03-03T16:36:51;7.55;;;0.88;;
78778;SDS011;68121;52.404;5.318;2023-03-03T16:42:02;7.10;;;0.98;;
78778;SDS011;68121;52.404;5.318;2023-03-03T16:55:38;10.40;;;1.10;;
78778;SDS011;68121;52.404;5.318;2023-03-03T17:06:36;10.32;;;1.23;;
78778;SDS011;68121;52.404;5.318;2023-03-03T17:14:35;14.32;;;2.50;;
78778;SDS011;68121;52.404;5.318;2023-03-03T17:20:02;9.23;;;1.42;;
78778;SDS011;68121;52.404;5.318;2023-03-03T17:25:12;13.35;;;2.03;;
78778;SDS011;68121;52.404;5.318;2023-03-03T17:30:34;12.35;;;1.50;;
78778;SDS011;68121;52.404;5.318;2023-03-03T17:33:14;11.88;;;1.55;;
78778;SDS011;68121;52.404;5.318;2023-03-03T17:41:28;11.05;;;1.60;;
78778;SDS011;68121;52.404;5.318;2023-03-03T17:55:18;3.33;;;0.80;;
78778;SDS011;68121;52.404;5.318;2023-03-03T18:00:09;14.40;;;1.63;;
78778;SDS011;68121;52.404;5.318;2023-03-03T18:02:45;6.65;;;0.77;;
78778;SDS011;68121;52.404;5.318;2023-03-03T18:10:58;9.73;;;1.42;;
78778;SDS011;68121;52.404;5.318;2023-03-03T18:13:38;7.57;;;1.17;;
78778;SDS011;68121;52.404;5.318;2023-03-03T18:16:32;10.05;;;1.83;;
78778;SDS011;68121;52.404;5.318;2023-03-03T18:26:50;10.80;;;2.13;;
78778;SDS011;68121;52.404;5.318;2023-03-03T18:29:19;8.18;;;1.50;;
78778;SDS011;68121;52.404;5.318;2023-03-03T18:34:37;12.00;;;2.08;;
78778;SDS011;68121;52.404;5.318;2023-03-03T18:42:35;9.93;;;1.40;;
78778;SDS011;68121;52.404;5.318;2023-03-03T18:55:44;11.52;;;1.95;;
78778;SDS011;68121;52.404;5.318;2023-03-03T19:00:41;13.45;;;1.88;;
78778;SDS011;68121;52.404;5.318;2023-03-03T19:03:34;9.95;;;1.48;;
78778;SDS011;68121;52.404;5.318;2023-03-03T19:06:03;11.75;;;1.80;;
78778;SDS011;68121;52.404;5.318;2023-03-03T19:16:50;9.73;;;1.20;;
78778;SDS011;68121;52.404;5.318;2023-03-03T19:19:18;4.97;;;1.33;;
78778;SDS011;68121;52.404;5.318;2023-03-03T19:21:47;9.70;;;2.00;;
78778;SDS011;68121;52.404;5.318;2023-03-03T19:24:29;12.50;;;1.63;;
78778;SDS011;68121;52.404;5.318;2023-03-03T19:35:33;9.25;;;1.50;;
78778;SDS011;68121;52.404;5.318;2023-03-03T19:37:59;15.95;;;1.95;;
78778;SDS011;68121;52.404;5.318;2023-03-03T19:56:55;6.40;;;1.35;;
78778;SDS011;68121;52.404;5.318;2023-03-03T20:02:10;14.43;;;2.65;;
78778;SDS011;68121;52.404;5.318;2023-03-03T20:18:34;13.63;;;2.90;;
78778;SDS011;68121;52.404;5.318;2023-03-03T20:21:15;7.18;;;1.65;;
78778;SDS011;68121;52.404;5.318;2023-03-03T20:24:24;7.95;;;1.20;;
78778;SDS011;68121;52.404;5.318;2023-03-03T20:26:58;15.25;;;1.50;;
78778;SDS011;68121;52.404;5.318;2023-03-03T20:29:44;8.35;;;2.15;;
78778;SDS011;68121;52.404;5.318;2023-03-03T20:45:19;10.68;;;2.10;;
78778;SDS011;68121;52.404;5.318;2023-03-03T21:04:49;11.32;;;1.58;;
78778;SDS011;68121;52.404;5.318;2023-03-03T21:07:35;14.77;;;1.85;;
78778;SDS011;68121;52.404;5.318;2023-03-03T21:10:10;8.52;;;1.45;;
78778;SDS011;68121;52.404;5.318;2023-03-03T21:12:39;9.43;;;2.05;;
78778;SDS011;68121;52.404;5.318;2023-03-03T21:15:22;13.15;;;1.40;;
78778;SDS011;68121;52.404;5.318;2023-03-03T21:17:49;8.55;;;1.58;;
78778;SDS011;68121;52.404;5.318;2023-03-03T21:20:48;9.88;;;1.63;;
78778;SDS011;68121;52.404;5.318;2023-03-03T21:23:07;10.15;;;2.30;;
78778;SDS011;68121;52.404;5.318;2023-03-03T21:36:24;5.32;;;1.15;;
78778;SDS011;68121;52.404;5.318;2023-03-03T21:42:06;8.80;;;2.42;;
78778;SDS011;68121;52.404;5.318;2023-03-03T21:47:12;6.65;;;1.92;;
78778;SDS011;68121;52.404;5.318;2023-03-03T21:49:42;9.88;;;1.38;;
78778;SDS011;68121;52.404;5.318;2023-03-03T21:52:10;9.65;;;1.42;;
78778;SDS011;68121;52.404;5.318;2023-03-03T21:54:36;8.00;;;1.17;;
78778;SDS011;68121;52.404;5.318;2023-03-03T21:57:02;12.48;;;1.50;;
78778;SDS011;68121;52.404;5.318;2023-03-03T21:59:29;8.40;;;1.90;;
78778;SDS011;68121;52.404;5.318;2023-03-03T22:01:55;11.45;;;1.25;;
78778;SDS011;68121;52.404;5.318;2023-03-03T22:04:21;7.25;;;1.38;;
78778;SDS011;68121;52.404;5.318;2023-03-03T22:06:47;6.93;;;1.42;;
78778;SDS011;68121;52.404;5.318;2023-03-03T22:09:13;5.30;;;1.92;;
78778;SDS011;68121;52.404;5.318;2023-03-03T22:11:39;7.93;;;1.65;;
78778;SDS011;68121;52.404;5.318;2023-03-03T22:14:06;11.55;;;1.55;;
78778;SDS011;68121;52.404;5.318;2023-03-03T22:16:33;7.47;;;0.88;;
78778;SDS011;68121;52.404;5.318;2023-03-03T22:18:59;8.55;;;1.25;;
78778;SDS011;68121;52.404;5.318;2023-03-03T22:21:26;5.72;;;0.63;;
78778;SDS011;68121;52.404;5.318;2023-03-03T22:23:52;7.00;;;1.08;;
78778;SDS011;68121;52.404;5.318;2023-03-03T22:26:18;8.00;;;1.50;;
78778;SDS011;68121;52.404;5.318;2023-03-03T22:28:46;2.08;;;0.60;;
78778;SDS011;68121;52.404;5.318;2023-03-03T22:31:14;10.40;;;1.30;;
78778;SDS011;68121;52.404;5.318;2023-03-03T22:33:40;11.05;;;1.20;;
78778;SDS011;68121;52.404;5.318;2023-03-03T22:36:07;8.10;;;1.00;;
78778;SDS011;68121;52.404;5.318;2023-03-03T22:38:33;8.95;;;1.38;;
78778;SDS011;68121;52.404;5.318;2023-03-03T22:41:00;8.48;;;1.60;;